Time;durP1;ratioP1;P1;durP2;ratioP2;P2;SDS_P1;SDS_P2;PMS_P1;PMS_P2;Temp;Humidity;BMP_temperature;BMP_pressure;BME280_temperature;BME280_humidity;BME280_pressure;Samples;Min_cycle;Max_cycle;Signal;HPM_P1;HPM_P2
2023/05/31 03:01:16;;;;;;;8.07;7.00;;;12.30;94.20;;;;;;5550859;23;20391;-76
2023/05/31 03:03:42;;;;;;;7.33;6.63;;;12.30;94.70;;;;;;4953621;28;20288;-78
2023/05/31 03:06:07;;;;;;;9.57;8.77;;;12.20;94.90;;;;;;4956143;28;20201;-76
2023/05/31 03:08:33;;;;;;;9.17;8.57;;;12.20;95.50;;;;;;4972899;28;20193;-77
2023/05/31 03:10:59;;;;;;;11.37;10.57;;;12.10;95.40;;;;;;4964144;28;20581;-78
2023/05/31 03:13:24;;;;;;;10.23;9.23;;;12.10;95.60;;;;;;4954765;28;20276;-77
2023/05/31 03:15:51;;;;;;;12.60;11.87;;;12.10;95.90;;;;;;4952664;28;20760;-77
2023/05/31 03:18:16;;;;;;;20.27;18.87;;;12.10;96.20;;;;;;4973373;28;20185;-75
2023/05/31 03:20:42;;;;;;;24.90;23.60;;;12.10;96.30;;;;;;4958500;28;20595;-76
2023/05/31 03:23:08;;;;;;;21.73;20.63;;;12.10;96.50;;;;;;4973342;28;20600;-75
2023/05/31 03:25:34;;;;;;;21.17;20.13;;;12.00;96.70;;;;;;4951232;28;20185;-76
2023/05/31 03:28:00;;;;;;;18.07;17.07;;;12.10;96.80;;;;;;4966358;28;20185;-76
2023/05/31 03:30:25;;;;;;;28.13;26.53;;;12.10;96.80;;;;;;4973448;28;20681;-76
2023/05/31 03:32:51;;;;;;;30.93;29.03;;;12.00;97.30;;;;;;4956392;28;20677;-77
2023/05/31 03:35:17;;;;;;;29.67;27.97;;;12.00;97.80;;;;;;4957223;28;20220;-76
2023/05/31 03:37:43;;;;;;;30.33;28.73;;;11.90;98.10;;;;;;4957395;28;20227;-77
2023/05/31 03:40:09;;;;;;;29.70;28.17;;;11.90;98.50;;;;;;4955626;28;20645;-76
2023/05/31 03:42:35;;;;;;;31.00;29.27;;;11.90;99.00;;;;;;4961174;28;20247;-75
2023/05/31 03:45:02;;;;;;;21.87;20.67;;;11.80;99.40;;;;;;4960111;28;20217;-75
2023/05/31 03:47:27;;;;;;;21.17;20.07;;;11.80;99.90;;;;;;4969716;28;20189;-74
2023/05/31 03:49:53;;;;;;;23.57;22.30;;;11.80;99.90;;;;;;4967051;28;20533;-75
2023/05/31 03:52:19;;;;;;;23.33;21.83;;;11.90;99.90;;;;;;4972421;28;20209;-75
2023/05/31 03:54:46;;;;;;;17.23;15.80;;;11.90;99.90;;;;;;4961525;28;20571;-74
2023/05/31 03:57:12;;;;;;;26.60;25.07;;;12.00;99.90;;;;;;4955174;28;20209;-74
2023/05/31 03:59:38;;;;;;;26.93;25.47;;;12.00;99.90;;;;;;4954127;28;20190;-75
2023/05/31 04:02:04;;;;;;;36.17;34.20;;;12.00;99.90;;;;;;4970352;28;20266;-74
2023/05/31 04:04:30;;;;;;;28.30;26.73;;;12.00;99.90;;;;;;4972374;28;20189;-75
2023/05/31 04:06:56;;;;;;;39.07;37.00;;;12.00;99.90;;;;;;4960902;28;20239;-76
2023/05/31 04:09:23;;;;;;;55.03;52.10;;;12.10;99.90;;;;;;4953288;28;20221;-76
2023/05/31 04:11:49;;;;;;;53.63;50.67;;;12.10;99.90;;;;;;4950869;28;20290;-76
2023/05/31 04:14:15;;;;;;;62.37;59.17;;;12.20;99.90;;;;;;4972406;28;20239;-76
2023/05/31 04:16:41;;;;;;;73.13;68.97;;;12.30;99.90;;;;;;4972986;28;20197;-76
2023/05/31 04:19:07;;;;;;;63.90;60.37;;;12.40;99.90;;;;;;4971502;28;20185;-76
2023/05/31 04:21:33;;;;;;;50.10;47.20;;;12.40;99.90;;;;;;4972267;28;20220;-76
2023/05/31 04:23:59;;;;;;;38.73;36.30;;;12.40;99.90;;;;;;4972227;28;20189;-76
2023/05/31 04:26:25;;;;;;;40.50;38.17;;;12.50;99.90;;;;;;4972158;28;20216;-70
2023/05/31 04:28:53;;;;;;;34.80;32.87;;;12.60;99.90;;;;;;4971570;28;20512;-71
2023/05/31 04:31:19;;;;;;;38.67;36.47;;;12.60;99.90;;;;;;4972377;28;20304;-70
2023/05/31 04:33:45;;;;;;;41.90;39.40;;;12.70;99.90;;;;;;4971863;28;20268;-71
2023/05/31 04:36:11;;;;;;;35.70;33.43;;;12.80;99.90;;;;;;4954496;28;20193;-71
2023/05/31 04:38:38;;;;;;;31.40;29.60;;;12.80;99.90;;;;;;4954625;28;20619;-70
2023/05/31 04:41:04;;;;;;;19.03;17.93;;;12.90;99.90;;;;;;4954660;28;20204;-71
2023/05/31 04:43:30;;;;;;;12.97;11.97;;;13.00;99.90;;;;;;4970295;28;20209;-71
2023/05/31 04:46:00;;;;;;;8.90;5.87;;;13.10;99.90;;;;;;4951608;28;20195;-71
2023/05/31 04:48:27;;;;;;;6.80;5.30;;;13.20;99.90;;;;;;4954169;28;20197;-71
2023/05/31 04:50:54;;;;;;;5.73;5.20;;;13.30;99.90;;;;;;4971887;28;20221;-71
2023/05/31 04:53:21;;;;;;;6.27;5.87;;;13.40;99.90;;;;;;4955001;28;20731;-70
2023/05/31 04:55:47;;;;;;;6.47;5.97;;;13.50;99.90;;;;;;4971842;28;20193;-71
2023/05/31 04:58:13;;;;;;;6.97;4.90;;;13.70;99.90;;;;;;4971728;28;20749;-71
2023/05/31 05:00:38;;;;;;;4.40;4.10;;;13.80;99.90;;;;;;4954672;28;20225;-70
2023/05/31 05:03:04;;;;;;;9.53;8.83;;;14.10;99.90;;;;;;4971626;28;20244;-71
2023/05/31 05:05:30;;;;;;;34.47;32.57;;;14.50;99.90;;;;;;4954641;28;20196;-71
2023/05/31 05:07:56;;;;;;;58.40;55.43;;;15.00;99.40;;;;;;4954408;28;20185;-71
2023/05/31 05:10:22;;;;;;;19.37;18.03;;;15.70;98.10;;;;;;4971694;28;20204;-71
2023/05/31 05:12:47;;;;;;;9.07;8.55;;;16.50;94.50;;;;;;4972117;28;20606;-71
2023/05/31 05:15:13;;;;;;;6.43;5.93;;;17.30;92.50;;;;;;4954720;28;20200;-71
2023/05/31 05:17:39;;;;;;;6.95;6.38;;;18.00;90.60;;;;;;4971421;28;20200;-70
2023/05/31 05:20:07;;;;;;;8.35;6.10;;;18.60;87.90;;;;;;4971654;28;20290;-71
2023/05/31 05:22:33;;;;;;;6.95;6.55;;;19.20;84.60;;;;;;4971870;28;20264;-71
2023/05/31 05:25:00;;;;;;;4.82;4.30;;;19.70;83.10;;;;;;4971467;28;20220;-71
2023/05/31 05:27:25;;;;;;;11.40;5.28;;;20.00;81.80;;;;;;4971508;28;20265;-71
2023/05/31 05:29:51;;;;;;;11.02;10.13;;;20.00;79.50;;;;;;4972163;28;20704;-77
2023/05/31 05:32:17;;;;;;;13.45;12.20;;;20.30;77.90;;;;;;4959304;28;20223;-76
2023/05/31 05:34:43;;;;;;;9.90;8.95;;;20.80;80.50;;;;;;4958302;28;20295;-77
2023/05/31 05:37:09;;;;;;;6.28;5.65;;;21.30;75.30;;;;;;4960100;28;20665;-76
2023/05/31 05:39:35;;;;;;;6.47;6.07;;;21.50;71.40;;;;;;4951061;28;20209;-76
2023/05/31 05:42:02;;;;;;;6.53;6.07;;;21.70;70.30;;;;;;4968380;28;20213;-75
2023/05/31 05:44:28;;;;;;;7.05;6.63;;;21.60;67.50;;;;;;4975599;28;20184;-76
2023/05/31 05:46:54;;;;;;;6.93;6.40;;;21.30;67.10;;;;;;4957206;28;20251;-76
2023/05/31 05:49:20;;;;;;;7.57;6.97;;;21.50;67.70;;;;;;4973429;28;20280;-76
2023/05/31 05:51:45;;;;;;;7.45;6.95;;;21.70;67.60;;;;;;4957473;28;20296;-76
2023/05/31 05:54:11;;;;;;;6.45;5.95;;;22.10;66.80;;;;;;4975147;28;20239;-77
2023/05/31 05:56:37;;;;;;;6.25;5.75;;;22.50;65.00;;;;;;4975604;28;20306;-76
2023/05/31 05:59:02;;;;;;;4.82;4.47;;;22.70;64.30;;;;;;4957517;28;20196;-77
2023/05/31 06:01:28;;;;;;;4.95;4.25;;;22.70;63.80;;;;;;4974886;28;20344;-76
2023/05/31 06:03:55;;;;;;;4.70;4.40;;;22.80;62.60;;;;;;4957986;28;20196;-76
2023/05/31 06:06:21;;;;;;;5.70;4.93;;;22.60;61.80;;;;;;4975102;28;20196;-76
2023/05/31 06:08:47;;;;;;;6.75;6.25;;;21.80;63.40;;;;;;4957404;28;20621;-76
2023/05/31 06:11:15;;;;;;;6.10;5.70;;;21.70;64.30;;;;;;4957922;28;20205;-75
2023/05/31 06:13:44;;;;;;;5.82;5.43;;;21.90;65.70;;;;;;4957758;28;20193;-76
2023/05/31 06:16:10;;;;;;;5.90;5.38;;;22.10;63.70;;;;;;4974674;28;20271;-75
2023/05/31 06:18:36;;;;;;;6.78;6.28;;;22.10;63.80;;;;;;4957246;28;20185;-76
2023/05/31 06:21:02;;;;;;;7.32;6.82;;;21.80;64.40;;;;;;4957583;28;20220;-76
2023/05/31 06:23:29;;;;;;;6.10;5.78;;;22.10;64.30;;;;;;4957660;28;20602;-76
2023/05/31 06:25:54;;;;;;;5.78;5.30;;;22.40;63.40;;;;;;4958595;28;20223;-76
2023/05/31 06:28:20;;;;;;;4.28;3.97;;;22.80;63.20;;;;;;4975692;28;20228;-76
2023/05/31 06:30:46;;;;;;;7.15;6.55;;;22.50;61.10;;;;;;4975251;28;20201;-75
2023/05/31 06:33:13;;;;;;;7.82;7.43;;;21.60;63.50;;;;;;4975150;28;20232;-75
2023/05/31 06:35:40;;;;;;;6.25;5.72;;;21.80;64.60;;;;;;4974612;28;20534;-75
2023/05/31 06:38:07;;;;;;;8.70;6.97;;;21.90;62.60;;;;;;4956908;28;20200;-76
2023/05/31 06:40:33;;;;;;;7.57;7.03;;;21.30;65.30;;;;;;4974520;28;20213;-76
2023/05/31 06:42:58;;;;;;;6.10;5.40;;;21.40;64.60;;;;;;4974147;28;20240;-75
2023/05/31 06:45:24;;;;;;;6.40;6.00;;;21.90;64.40;;;;;;4974529;28;20185;-75
2023/05/31 06:47:50;;;;;;;6.85;6.35;;;21.90;63.20;;;;;;4974229;28;20189;-75
2023/05/31 06:50:16;;;;;;;6.10;5.70;;;21.80;63.90;;;;;;4957252;28;20539;-75
2023/05/31 06:52:42;;;;;;;6.55;5.88;;;21.60;64.60;;;;;;4974584;28;20203;-76
2023/05/31 06:55:08;;;;;;;6.90;6.50;;;22.00;63.30;;;;;;4974224;28;20189;-76
2023/05/31 06:57:34;;;;;;;6.50;5.90;;;22.20;63.60;;;;;;4956787;28;20571;-75
2023/05/31 06:59:59;;;;;;;5.60;5.20;;;22.70;63.00;;;;;;4974637;28;20193;-75
2023/05/31 07:02:27;;;;;;;6.57;5.10;;;22.60;62.20;;;;;;4958230;28;20228;-75
2023/05/31 07:04:52;;;;;;;5.45;4.95;;;22.70;62.90;;;;;;4957697;28;20275;-76
2023/05/31 07:07:18;;;;;;;4.47;4.18;;;22.70;62.60;;;;;;4974310;28;20287;-76
2023/05/31 07:09:44;;;;;;;4.88;4.57;;;22.30;62.10;;;;;;4957022;28;20185;-75
2023/05/31 07:12:10;;;;;;;4.90;4.60;;;22.20;61.60;;;;;;4974252;28;20213;-76
2023/05/31 07:14:36;;;;;;;7.47;5.10;;;22.20;61.70;;;;;;4974418;28;20245;-76
2023/05/31 07:17:02;;;;;;;7.85;7.25;;;22.00;63.30;;;;;;4958490;28;20369;-75
2023/05/31 07:19:29;;;;;;;5.95;5.45;;;22.10;63.10;;;;;;4975727;28;20192;-76
2023/05/31 07:21:54;;;;;;;8.30;5.00;;;22.60;62.10;;;;;;4975975;28;20239;-76
2023/05/31 07:24:20;;;;;;;7.60;4.60;;;22.60;61.80;;;;;;4975934;28;20184;-76
2023/05/31 07:26:46;;;;;;;5.82;4.55;;;22.70;61.80;;;;;;4974194;28;20193;-76
2023/05/31 07:29:12;;;;;;;4.70;4.40;;;22.70;62.20;;;;;;4973552;28;20193;-76
2023/05/31 07:31:38;;;;;;;8.60;4.50;;;23.10;61.00;;;;;;4973401;28;20279;-76
2023/05/31 07:34:03;;;;;;;8.43;7.75;;;23.10;61.10;;;;;;4956329;28;20188;-76
2023/05/31 07:36:30;;;;;;;6.35;5.38;;;23.00;60.20;;;;;;4956447;28;20244;-76
2023/05/31 07:38:55;;;;;;;4.90;4.20;;;22.50;60.70;;;;;;4956122;28;20247;-76
2023/05/31 07:41:21;;;;;;;6.38;4.22;;;22.60;61.70;;;;;;4973408;28;20216;-76
2023/05/31 07:43:47;;;;;;;5.22;4.82;;;22.50;61.90;;;;;;4973185;28;20212;-76
2023/05/31 07:46:13;;;;;;;6.32;6.00;;;22.80;60.80;;;;;;4973387;28;20197;-75
2023/05/31 07:48:39;;;;;;;7.50;6.80;;;23.10;60.60;;;;;;4973066;28;20196;-76
2023/05/31 07:51:05;;;;;;;12.05;11.30;;;23.50;60.90;;;;;;4973397;28;20558;-76
2023/05/31 07:53:31;;;;;;;11.93;10.90;;;23.60;59.50;;;;;;4972577;28;20610;-76
2023/05/31 07:55:57;;;;;;;11.20;10.40;;;23.50;60.10;;;;;;4973139;28;20197;-76
2023/05/31 07:58:24;;;;;;;12.80;11.75;;;23.60;59.40;;;;;;4972521;28;20211;-76
2023/05/31 08:00:52;;;;;;;12.65;11.52;;;23.50;59.20;;;;;;4973261;28;20224;-76
2023/05/31 08:03:17;;;;;;;10.13;9.52;;;23.20;59.90;;;;;;4973024;28;20219;-76
2023/05/31 08:05:45;;;;;;;11.45;10.82;;;23.10;60.20;;;;;;4955727;28;20193;-76
2023/05/31 08:08:10;;;;;;;9.73;9.02;;;23.40;59.40;;;;;;4972604;28;20193;-76
2023/05/31 08:10:36;;;;;;;11.43;10.63;;;23.40;60.40;;;;;;4955889;28;20573;-76
2023/05/31 08:13:02;;;;;;;10.93;10.10;;;23.60;60.50;;;;;;4972901;28;20674;-76
2023/05/31 08:15:28;;;;;;;10.68;10.02;;;24.00;58.70;;;;;;4973117;28;20341;-76
2023/05/31 08:17:55;;;;;;;8.70;8.30;;;24.30;58.30;;;;;;4972424;28;20275;-76
2023/05/31 08:20:20;;;;;;;11.45;10.35;;;24.20;58.70;;;;;;4973085;28;20330;-76
2023/05/31 08:22:46;;;;;;;9.38;8.70;;;24.30;59.70;;;;;;4972717;28;20283;-76
2023/05/31 08:25:14;;;;;;;6.93;6.18;;;24.80;59.30;;;;;;4972625;28;20193;-76
2023/05/31 08:27:40;;;;;;;5.63;5.22;;;24.80;57.60;;;;;;4972600;28;20181;-76
2023/05/31 08:30:09;;;;;;;6.10;5.57;;;25.00;57.60;;;;;;4974118;28;20540;-75
2023/05/31 08:32:35;;;;;;;6.00;5.60;;;24.60;57.40;;;;;;4965589;28;20770;-75
2023/05/31 08:35:02;;;;;;;6.22;5.72;;;24.40;57.50;;;;;;4953101;28;20302;-75
2023/05/31 08:37:27;;;;;;;9.18;6.22;;;24.40;58.50;;;;;;4936064;29;20189;-75
2023/05/31 08:39:53;;;;;;;5.97;5.47;;;24.40;57.90;;;;;;4969100;28;20255;-77
2023/05/31 08:42:25;;;;;;;6.25;5.85;;;24.70;57.90;;;;;;4972629;28;20715;-76
2023/05/31 08:44:51;;;;;;;6.20;5.47;;;24.70;57.70;;;;;;4972818;28;20620;-76
2023/05/31 08:47:28;;;;;;;8.20;7.57;;;24.70;57.00;;;;;;4971941;28;20212;-76
2023/05/31 08:49:54;;;;;;;8.25;7.55;;;24.20;57.30;;;;;;4972668;28;20267;-76
2023/05/31 08:52:21;;;;;;;8.93;8.18;;;24.30;57.20;;;;;;4972201;28;20213;-76
2023/05/31 08:54:48;;;;;;;5.85;5.47;;;24.40;58.00;;;;;;4955145;28;20255;-76
2023/05/31 08:57:15;;;;;;;8.00;6.03;;;24.70;57.00;;;;;;4971861;28;20565;-76
2023/05/31 08:59:43;;;;;;;6.75;6.05;;;24.70;57.00;;;;;;4972087;28;20562;-76
2023/05/31 09:02:12;;;;;;;6.43;5.15;;;25.00;57.00;;;;;;4971730;28;20295;-76
2023/05/31 09:04:40;;;;;;;5.32;4.85;;;25.30;56.20;;;;;;4954861;28;20192;-76
2023/05/31 09:07:06;;;;;;;7.90;5.00;;;25.00;55.00;;;;;;4971773;28;20275;-76
2023/05/31 09:09:31;;;;;;;6.32;5.72;;;24.60;55.50;;;;;;4954951;28;20284;-76
2023/05/31 09:11:57;;;;;;;5.28;4.85;;;24.50;56.30;;;;;;4954768;28;20205;-75
2023/05/31 09:14:24;;;;;;;5.30;4.85;;;24.70;55.20;;;;;;4996553;23;20286;-77
2023/05/31 09:16:50;;;;;;;5.05;4.65;;;24.70;54.70;;;;;;4973714;28;20219;-78
2023/05/31 09:19:16;;;;;;;5.18;4.80;;;24.40;55.10;;;;;;4973910;28;20207;-76
2023/05/31 09:21:44;;;;;;;12.05;5.30;;;24.90;54.20;;;;;;4991367;28;20180;-75
2023/05/31 09:24:10;;;;;;;5.85;5.30;;;24.70;54.50;;;;;;4959171;28;20209;-75
2023/05/31 09:26:48;;;;;;;6.82;5.35;;;24.40;54.70;;;;;;4972156;28;20181;-76
2023/05/31 09:29:15;;;;;;;4.97;4.68;;;24.70;55.10;;;;;;4954996;28;20242;-75
2023/05/31 09:31:41;;;;;;;6.78;6.15;;;25.00;53.80;;;;;;4972267;28;20196;-75
2023/05/31 09:34:27;;;;;;;6.55;5.15;;;25.20;53.90;;;;;;4972052;28;20208;-76
2023/05/31 09:36:57;;;;;;;6.45;5.95;;;25.70;53.10;;;;;;4971799;28;20193;-76
2023/05/31 09:39:23;;;;;;;6.65;6.15;;;25.80;52.90;;;;;;4954978;28;20732;-76
2023/05/31 09:41:50;;;;;;;7.20;5.50;;;25.40;52.20;;;;;;4971923;28;20343;-76
2023/05/31 09:44:16;;;;;;;6.43;5.72;;;25.20;52.80;;;;;;4954613;28;20719;-76
2023/05/31 09:46:45;;;;;;;7.43;5.75;;;25.20;52.70;;;;;;4948527;29;20182;-75
2023/05/31 09:49:11;;;;;;;6.40;5.43;;;25.70;53.50;;;;;;4970098;28;20295;-76
2023/05/31 09:51:37;;;;;;;5.63;5.10;;;26.20;52.40;;;;;;4972017;28;20320;-77
2023/05/31 09:54:10;;;;;;;6.28;5.53;;;26.50;51.90;;;;;;4971639;28;20220;-76
2023/05/31 09:56:37;;;;;;;10.77;4.68;;;26.70;51.70;;;;;;4963698;28;20571;-76
2023/05/31 09:59:04;;;;;;;10.68;5.53;;;27.20;51.60;;;;;;4971121;28;20196;-76
2023/05/31 10:01:31;;;;;;;5.43;5.03;;;26.80;50.10;;;;;;4971342;28;20221;-76
2023/05/31 10:03:59;;;;;;;4.90;4.57;;;26.20;51.30;;;;;;4971622;28;20205;-76
2023/05/31 10:06:26;;;;;;;6.43;5.65;;;26.70;51.00;;;;;;4971808;28;20219;-76
2023/05/31 10:08:52;;;;;;;8.75;8.05;;;26.90;51.30;;;;;;4954016;28;20204;-76
2023/05/31 10:11:28;;;;;;;7.07;6.68;;;26.60;49.60;;;;;;4954563;28;20185;-76
2023/05/31 10:13:59;;;;;;;5.97;5.57;;;26.20;49.90;;;;;;4954124;28;20220;-77
2023/05/31 10:16:28;;;;;;;6.75;5.28;;;26.40;50.30;;;;;;4973069;28;20186;-76
2023/05/31 10:19:01;;;;;;;6.97;6.35;;;26.30;50.20;;;;;;4975517;28;20177;-76
2023/05/31 10:21:28;;;;;;;7.18;6.57;;;26.50;50.20;;;;;;4957759;28;20199;-75
2023/05/31 10:24:08;;;;;;;10.30;9.43;;;27.00;50.30;;;;;;4974998;28;20248;-76
2023/05/31 10:26:46;;;;;;;12.00;11.10;;;27.40;49.10;;;;;;4957695;28;20220;-75
2023/05/31 10:29:19;;;;;;;20.35;19.10;;;27.50;49.00;;;;;;4979216;28;20212;-77
2023/05/31 10:31:50;;;;;;;16.23;14.85;;;27.10;46.50;;;;;;4973107;28;20177;-77
2023/05/31 10:34:24;;;;;;;17.92;16.90;;;27.00;48.00;;;;;;4981250;28;20648;-77
2023/05/31 10:36:54;;;;;;;15.98;15.18;;;27.50;48.00;;;;;;4976206;28;20204;-78
2023/05/31 10:39:32;;;;;;;23.02;21.73;;;27.00;47.30;;;;;;4957621;28;20288;-77
2023/05/31 10:42:08;;;;;;;16.52;15.63;;;26.80;47.20;;;;;;4974540;28;20220;-77
2023/05/31 10:44:44;;;;;;;17.67;16.42;;;27.00;47.20;;;;;;4957430;28;20232;-77
2023/05/31 10:47:13;;;;;;;16.38;15.48;;;27.30;47.10;;;;;;4957128;28;20537;-76
2023/05/31 10:49:41;;;;;;;31.02;29.33;;;27.80;47.50;;;;;;4974865;28;20223;-76
2023/05/31 10:52:09;;;;;;;41.13;38.90;;;28.30;46.40;;;;;;4974803;28;20193;-77
2023/05/31 10:54:35;;;;;;;53.40;50.67;;;28.60;46.60;;;;;;4969204;28;20213;-76
2023/05/31 10:57:05;;;;;;;45.58;43.25;;;28.30;45.80;;;;;;4971305;28;20228;-76
2023/05/31 10:59:44;;;;;;;28.33;26.58;;;27.60;47.00;;;;;;4957443;28;20185;-77
2023/05/31 11:02:11;;;;;;;23.23;21.92;;;27.40;48.00;;;;;;4972747;28;20287;-76
2023/05/31 11:04:37;;;;;;;18.85;17.73;;;27.70;48.40;;;;;;4969067;28;20213;-76
2023/05/31 11:07:16;;;;;;;20.75;19.65;;;27.40;47.70;;;;;;4956808;28;20189;-76
2023/05/31 11:09:56;;;;;;;28.45;26.73;;;27.60;47.00;;;;;;4974658;28;20204;-76
2023/05/31 11:12:36;;;;;;;32.20;30.45;;;27.70;46.60;;;;;;4974045;28;20283;-76
2023/05/31 11:15:11;;;;;;;40.38;38.03;;;28.10;46.90;;;;;;4956512;28;20232;-76
2023/05/31 11:17:50;;;;;;;49.92;47.45;;;28.80;46.30;;;;;;4973995;28;20196;-76
2023/05/31 11:20:17;;;;;;;48.47;46.08;;;28.60;45.50;;;;;;4974789;28;20287;-76
2023/05/31 11:22:45;;;;;;;56.42;53.35;;;28.70;45.00;;;;;;4956595;28;20299;-77
2023/05/31 11:25:20;;;;;;;41.28;38.92;;;28.40;46.20;;;;;;4973771;28;20217;-76
2023/05/31 11:27:49;;;;;;;41.40;39.13;;;28.40;45.00;;;;;;4972919;28;20283;-76
2023/05/31 11:30:16;;;;;;;40.63;38.53;;;28.70;43.70;;;;;;4973841;28;20220;-76
2023/05/31 11:32:42;;;;;;;43.20;41.05;;;28.60;43.10;;;;;;4974551;28;20601;-76
2023/05/31 11:35:15;;;;;;;41.80;39.58;;;28.40;42.60;;;;;;4973436;28;20245;-76
2023/05/31 11:37:42;;;;;;;41.03;38.75;;;28.00;44.20;;;;;;4973577;28;20192;-76
2023/05/31 11:40:12;;;;;;;39.33;37.25;;;28.40;43.30;;;;;;4973536;28;20671;-76
2023/05/31 11:42:39;;;;;;;42.03;39.95;;;28.50;43.10;;;;;;4956638;28;20220;-76
2023/05/31 11:45:06;;;;;;;46.88;44.42;;;28.60;42.90;;;;;;4973452;28;20260;-75
2023/05/31 11:47:37;;;;;;;46.03;43.72;;;28.90;43.30;;;;;;4973258;28;20276;-76
2023/05/31 11:50:03;;;;;;;37.85;35.95;;;29.50;42.00;;;;;;4973441;28;20189;-75
2023/05/31 11:52:29;;;;;;;32.88;30.77;;;29.90;40.60;;;;;;4973385;28;20235;-75
2023/05/31 11:55:04;;;;;;;33.97;32.17;;;29.60;41.20;;;;;;4973165;28;20272;-75
2023/05/31 11:57:30;;;;;;;31.83;29.92;;;29.70;40.70;;;;;;4973379;28;20203;-75
2023/05/31 12:00:14;;;;;;;31.42;29.73;;;29.80;41.00;;;;;;4973137;28;20189;-76
2023/05/31 12:02:46;;;;;;;27.60;26.20;;;29.80;40.20;;;;;;4955984;28;20645;-76
2023/05/31 12:05:14;;;;;;;27.48;25.77;;;29.50;40.20;;;;;;4973330;28;20209;-76
2023/05/31 12:07:41;;;;;;;35.35;33.20;;;29.80;40.40;;;;;;4955596;28;20192;-77
2023/05/31 12:10:07;;;;;;;20.13;18.95;;;30.60;39.70;;;;;;4972884;28;20193;-76
2023/05/31 12:12:35;;;;;;;18.63;17.55;;;30.50;38.20;;;;;;4973083;28;20197;-76
2023/05/31 12:15:01;;;;;;;23.38;22.10;;;30.80;38.30;;;;;;4972820;28;20228;-76
2023/05/31 12:17:30;;;;;;;21.02;19.92;;;30.80;39.10;;;;;;4964894;28;20700;-75
2023/05/31 12:19:56;;;;;;;16.02;15.20;;;30.60;38.40;;;;;;4955766;28;20199;-76
2023/05/31 12:22:22;;;;;;;27.80;26.20;;;29.70;36.90;;;;;;4982294;28;20212;-76
2023/05/31 12:24:53;;;;;;;25.33;23.83;;;29.80;38.90;;;;;;4984901;28;20212;-75
2023/05/31 12:27:24;;;;;;;22.27;21.15;;;30.30;38.30;;;;;;4976239;28;20239;-76
2023/05/31 12:29:54;;;;;;;22.85;21.52;;;30.70;38.20;;;;;;4974481;28;20193;-76
2023/05/31 12:32:21;;;;;;;19.98;18.98;;;30.90;38.60;;;;;;4960255;28;20193;-75
2023/05/31 12:34:47;;;;;;;15.93;15.13;;;30.50;37.40;;;;;;4970632;28;20211;-76
2023/05/31 12:37:13;;;;;;;15.23;14.32;;;29.80;38.60;;;;;;4952361;28;20189;-76
2023/05/31 12:39:39;;;;;;;17.00;16.00;;;30.30;36.70;;;;;;4966116;28;20193;-76
2023/05/31 12:42:06;;;;;;;18.02;17.02;;;31.00;37.40;;;;;;4946962;28;20227;-76
2023/05/31 12:44:33;;;;;;;19.65;18.38;;;31.20;36.60;;;;;;4972455;28;20288;-76
2023/05/31 12:47:06;;;;;;;18.80;17.80;;;30.50;37.20;;;;;;4954592;28;20208;-76
2023/05/31 12:49:35;;;;;;;19.73;18.67;;;30.10;37.90;;;;;;4967568;28;20221;-76
2023/05/31 12:52:02;;;;;;;19.15;18.20;;;30.20;37.60;;;;;;4952640;28;20197;-77
2023/05/31 12:54:30;;;;;;;17.65;16.70;;;30.80;37.30;;;;;;4971899;28;20220;-76
2023/05/31 12:56:57;;;;;;;18.17;17.00;;;31.30;36.10;;;;;;4972099;28;20192;-77
2023/05/31 12:59:24;;;;;;;19.63;18.38;;;31.40;37.00;;;;;;4972210;28;20200;-76
2023/05/31 13:01:51;;;;;;;17.80;16.88;;;31.30;35.70;;;;;;4954379;28;20224;-76
2023/05/31 13:04:17;;;;;;;19.90;18.58;;;30.80;36.70;;;;;;4964009;28;20212;-76
2023/05/31 13:06:42;;;;;;;17.30;16.25;;;31.40;35.30;;;;;;4971986;28;20196;-76
2023/05/31 13:09:08;;;;;;;15.82;14.90;;;31.80;36.40;;;;;;4963400;28;20197;-77
2023/05/31 13:11:37;;;;;;;21.20;20.08;;;30.80;35.70;;;;;;4971878;28;20703;-76
2023/05/31 13:14:05;;;;;;;20.02;18.98;;;30.70;35.80;;;;;;4971728;28;20299;-77
2023/05/31 13:16:32;;;;;;;17.52;16.55;;;31.20;35.10;;;;;;4971397;28;20185;-76
2023/05/31 13:19:02;;;;;;;16.85;15.95;;;31.50;35.60;;;;;;4955157;28;20537;-76
2023/05/31 13:21:29;;;;;;;10.88;10.18;;;31.80;35.50;;;;;;4963954;28;20189;-76
2023/05/31 13:23:56;;;;;;;18.27;17.23;;;31.10;34.30;;;;;;4971575;28;20283;-76
2023/05/31 13:26:24;;;;;;;14.38;13.60;;;30.70;35.50;;;;;;4956093;28;20203;-75
2023/05/31 13:28:50;;;;;;;17.35;15.93;;;30.60;36.00;;;;;;4954038;28;20191;-76
2023/05/31 13:31:17;;;;;;;20.50;19.30;;;31.40;35.60;;;;;;4971800;28;20192;-76
2023/05/31 13:33:43;;;;;;;15.40;14.50;;;31.50;35.30;;;;;;4963751;28;20212;-76
2023/05/31 13:36:09;;;;;;;16.40;15.30;;;31.80;34.30;;;;;;4971634;28;20695;-76
2023/05/31 13:38:34;;;;;;;10.43;9.63;;;31.50;35.10;;;;;;4971366;28;20196;-76
2023/05/31 13:41:00;;;;;;;13.48;12.40;;;32.50;34.70;;;;;;4971700;28;20197;-76
2023/05/31 13:43:26;;;;;;;12.38;11.50;;;31.50;35.30;;;;;;4954420;28;20216;-77
2023/05/31 13:45:52;;;;;;;11.52;10.93;;;31.20;34.60;;;;;;4971900;28;20235;-77
2023/05/31 13:48:19;;;;;;;5.80;5.40;;;31.70;34.70;;;;;;4971426;28;20185;-76
2023/05/31 13:50:44;;;;;;;6.78;6.13;;;32.10;33.90;;;;;;4971661;28;20200;-76
2023/05/31 13:53:10;;;;;;;5.40;4.90;;;32.40;34.60;;;;;;4975714;28;20199;-76
2023/05/31 13:55:39;;;;;;;9.65;9.00;;;32.20;33.50;;;;;;4975546;28;20311;-77
2023/05/31 13:58:05;;;;;;;9.45;8.95;;;31.80;34.90;;;;;;4974915;28;20289;-76
2023/05/31 14:00:31;;;;;;;13.73;12.90;;;31.60;34.20;;;;;;4975311;28;20576;-75
2023/05/31 14:02:58;;;;;;;21.95;20.10;;;30.90;35.00;;;;;;4959624;28;20198;-76
2023/05/31 14:05:25;;;;;;;12.30;11.68;;;30.90;35.40;;;;;;4974375;28;20308;-76
2023/05/31 14:07:51;;;;;;;8.52;8.05;;;31.60;34.70;;;;;;4974361;28;20744;-76
2023/05/31 14:10:17;;;;;;;6.18;5.70;;;32.50;34.60;;;;;;4966679;28;20288;-76
2023/05/31 14:12:43;;;;;;;4.80;3.65;;;33.00;34.30;;;;;;4974362;28;20571;-76
2023/05/31 14:15:09;;;;;;;8.05;3.70;;;33.10;33.90;;;;;;4973042;28;20763;-76
2023/05/31 14:17:35;;;;;;;6.45;6.05;;;32.30;33.90;;;;;;4974229;28;20720;-76
2023/05/31 14:20:01;;;;;;;9.45;8.75;;;31.20;34.90;;;;;;4957032;28;20271;-76
2023/05/31 14:22:27;;;;;;;14.70;13.57;;;31.20;35.40;;;;;;4981520;28;20232;-76
2023/05/31 14:24:53;;;;;;;6.63;6.20;;;31.10;35.00;;;;;;4967820;28;20204;-76
2023/05/31 14:27:18;;;;;;;5.60;4.70;;;31.90;34.40;;;;;;4974953;28;20220;-76
2023/05/31 14:29:44;;;;;;;4.78;4.28;;;31.90;34.70;;;;;;4974664;28;20224;-76
2023/05/31 14:32:12;;;;;;;7.70;4.57;;;32.50;34.60;;;;;;4966359;28;20220;-76
2023/05/31 14:34:38;;;;;;;5.18;3.60;;;32.50;35.10;;;;;;4968862;28;20324;-76
2023/05/31 14:37:05;;;;;;;4.28;3.95;;;32.40;34.10;;;;;;4971758;28;20200;-77
2023/05/31 14:39:31;;;;;;;4.90;4.57;;;32.00;34.30;;;;;;4974341;28;20205;-76
2023/05/31 14:41:58;;;;;;;6.40;4.40;;;31.70;34.20;;;;;;4966268;28;20217;-76
2023/05/31 14:44:24;;;;;;;4.55;4.25;;;32.10;34.00;;;;;;4974684;28;20220;-76
2023/05/31 14:46:54;;;;;;;4.22;3.92;;;32.40;33.80;;;;;;4957085;28;20196;-77
2023/05/31 14:49:20;;;;;;;3.53;3.25;;;32.70;34.00;;;;;;4957142;28;20193;-76
2023/05/31 14:51:47;;;;;;;4.00;3.60;;;32.20;33.40;;;;;;4974419;28;20649;-77
2023/05/31 14:54:13;;;;;;;6.45;5.95;;;31.00;33.20;;;;;;4974057;28;20295;-76
2023/05/31 14:56:39;;;;;;;4.55;4.03;;;30.90;34.60;;;;;;4974168;28;20272;-77
2023/05/31 14:59:05;;;;;;;4.18;3.72;;;32.30;34.10;;;;;;4973953;28;20196;-76
2023/05/31 15:01:30;;;;;;;3.20;3.00;;;32.60;33.80;;;;;;4966722;28;20194;-76
2023/05/31 15:03:56;;;;;;;4.30;3.38;;;32.60;33.50;;;;;;4974110;28;20224;-76
2023/05/31 15:06:24;;;;;;;5.20;3.35;;;32.70;33.90;;;;;;4948835;28;20215;-76
2023/05/31 15:08:50;;;;;;;3.83;3.60;;;32.70;33.40;;;;;;4973722;28;20197;-78
2023/05/31 15:11:16;;;;;;;3.97;3.67;;;32.10;33.60;;;;;;4973932;28;20185;-77
2023/05/31 15:16:07;;;;;;;6.55;3.30;;;31.90;34.20;;;;;;5010426;23;20247;-75
2023/05/31 15:18:33;;;;;;;5.20;4.80;;;31.60;33.90;;;;;;4992572;28;20611;-76
2023/05/31 15:20:58;;;;;;;7.88;7.25;;;31.20;34.60;;;;;;4993198;28;20208;-76
2023/05/31 15:23:24;;;;;;;9.40;8.55;;;31.10;35.00;;;;;;4995286;28;20680;-76
2023/05/31 15:25:50;;;;;;;9.18;8.48;;;30.80;35.00;;;;;;4977094;28;20657;-75
2023/05/31 15:28:16;;;;;;;9.38;8.80;;;31.50;34.90;;;;;;4955977;28;20188;-75
2023/05/31 15:30:41;;;;;;;5.75;5.22;;;31.40;34.90;;;;;;4974399;28;20188;-74
2023/05/31 15:33:07;;;;;;;5.57;5.20;;;31.50;34.20;;;;;;4957353;28;20193;-74
2023/05/31 15:35:33;;;;;;;4.95;4.55;;;31.00;33.80;;;;;;4956299;28;20208;-74
2023/05/31 15:38:00;;;;;;;5.30;3.20;;;31.20;34.40;;;;;;4955719;28;20193;-74
2023/05/31 15:40:26;;;;;;;5.25;3.20;;;32.00;33.30;;;;;;4956336;28;20557;-75